sensor_id;sensor_type;location;lat;lon;timestamp;P1;durP1;ratioP1;P2;durP2;ratioP2
35462;SDS011;21578;47.892;9.970;2023-07-24T02:03:10;13.27;;;9.20;;
35462;SDS011;21578;47.892;9.970;2023-07-24T02:07:57;12.17;;;9.07;;
35462;SDS011;21578;47.892;9.970;2023-07-24T02:12:44;13.07;;;9.30;;
35462;SDS011;21578;47.892;9.970;2023-07-24T02:17:31;13.60;;;9.27;;
35462;SDS011;21578;47.892;9.970;2023-07-24T02:22:19;13.80;;;9.33;;
35462;SDS011;21578;47.892;9.970;2023-07-24T02:27:06;14.30;;;10.37;;
35462;SDS011;21578;47.892;9.970;2023-07-24T02:31:53;12.93;;;9.43;;
35462;SDS011;21578;47.892;9.970;2023-07-24T02:36:40;12.67;;;9.53;;
35462;SDS011;21578;47.892;9.970;2023-07-24T02:41:29;13.87;;;9.53;;
35462;SDS011;21578;47.892;9.970;2023-07-24T02:46:16;12.20;;;9.03;;
35462;SDS011;21578;47.892;9.970;2023-07-24T02:51:03;13.00;;;9.30;;
35462;SDS011;21578;47.892;9.970;2023-07-24T02:55:49;14.87;;;9.60;;
35462;SDS011;21578;47.892;9.970;2023-07-24T03:00:38;10.33;;;8.63;;
35462;SDS011;21578;47.892;9.970;2023-07-24T03:05:25;10.07;;;7.70;;
35462;SDS011;21578;47.892;9.970;2023-07-24T03:10:12;11.63;;;8.50;;
35462;SDS011;21578;47.892;9.970;2023-07-24T03:14:59;9.63;;;7.90;;
35462;SDS011;21578;47.892;9.970;2023-07-24T03:19:47;10.33;;;8.23;;
35462;SDS011;21578;47.892;9.970;2023-07-24T03:24:34;9.63;;;7.80;;
35462;SDS011;21578;47.892;9.970;2023-07-24T03:29:23;10.27;;;7.90;;
35462;SDS011;21578;47.892;9.970;2023-07-24T03:34:10;9.83;;;7.73;;
35462;SDS011;21578;47.892;9.970;2023-07-24T03:38:58;10.10;;;7.10;;
35462;SDS011;21578;47.892;9.970;2023-07-24T03:43:45;8.00;;;6.37;;
35462;SDS011;21578;47.892;9.970;2023-07-24T03:48:32;7.63;;;5.97;;
35462;SDS011;21578;47.892;9.970;2023-07-24T03:53:19;7.97;;;6.53;;
35462;SDS011;21578;47.892;9.970;2023-07-24T03:58:08;7.00;;;5.90;;
35462;SDS011;21578;47.892;9.970;2023-07-24T04:02:55;7.23;;;6.10;;
35462;SDS011;21578;47.892;9.970;2023-07-24T04:07:45;8.20;;;6.30;;
35462;SDS011;21578;47.892;9.970;2023-07-24T04:12:32;8.80;;;6.67;;
35462;SDS011;21578;47.892;9.970;2023-07-24T04:17:20;7.87;;;6.67;;
35462;SDS011;21578;47.892;9.970;2023-07-24T04:22:07;7.77;;;6.27;;
35462;SDS011;21578;47.892;9.970;2023-07-24T04:26:56;9.80;;;7.37;;
35462;SDS011;21578;47.892;9.970;2023-07-24T04:31:43;9.83;;;6.87;;
35462;SDS011;21578;47.892;9.970;2023-07-24T04:36:37;9.50;;;6.80;;
35462;SDS011;21578;47.892;9.970;2023-07-24T04:41:24;9.40;;;7.07;;
35462;SDS011;21578;47.892;9.970;2023-07-24T04:46:11;8.80;;;7.27;;
35462;SDS011;21578;47.892;9.970;2023-07-24T04:50:58;10.33;;;8.07;;
35462;SDS011;21578;47.892;9.970;2023-07-24T04:55:46;10.47;;;8.20;;
35462;SDS011;21578;47.892;9.970;2023-07-24T05:00:33;10.83;;;7.90;;
35462;SDS011;21578;47.892;9.970;2023-07-24T05:05:20;11.70;;;7.80;;
35462;SDS011;21578;47.892;9.970;2023-07-24T05:10:07;8.70;;;7.80;;
35462;SDS011;21578;47.892;9.970;2023-07-24T05:14:56;9.10;;;7.20;;
35462;SDS011;21578;47.892;9.970;2023-07-24T05:19:42;10.60;;;8.13;;
35462;SDS011;21578;47.892;9.970;2023-07-24T05:24:29;13.40;;;8.77;;
35462;SDS011;21578;47.892;9.970;2023-07-24T05:29:16;11.80;;;8.33;;
35462;SDS011;21578;47.892;9.970;2023-07-24T05:34:04;11.07;;;8.10;;
35462;SDS011;21578;47.892;9.970;2023-07-24T05:38:51;11.30;;;8.67;;
35462;SDS011;21578;47.892;9.970;2023-07-24T05:43:38;10.13;;;7.97;;
35462;SDS011;21578;47.892;9.970;2023-07-24T05:48:25;12.17;;;8.13;;
35462;SDS011;21578;47.892;9.970;2023-07-24T05:53:13;10.87;;;8.13;;
35462;SDS011;21578;47.892;9.970;2023-07-24T05:58:00;11.70;;;8.57;;
35462;SDS011;21578;47.892;9.970;2023-07-24T06:02:47;16.97;;;9.37;;
35462;SDS011;21578;47.892;9.970;2023-07-24T06:07:34;8.03;;;6.00;;
35462;SDS011;21578;47.892;9.970;2023-07-24T06:12:22;11.93;;;7.50;;
35462;SDS011;21578;47.892;9.970;2023-07-24T06:17:09;10.97;;;6.87;;
35462;SDS011;21578;47.892;9.970;2023-07-24T06:21:56;7.57;;;6.37;;
35462;SDS011;21578;47.892;9.970;2023-07-24T06:26:43;8.63;;;6.90;;
35462;SDS011;21578;47.892;9.970;2023-07-24T06:31:31;7.63;;;6.57;;
35462;SDS011;21578;47.892;9.970;2023-07-24T06:36:18;8.10;;;6.57;;
35462;SDS011;21578;47.892;9.970;2023-07-24T06:41:05;7.47;;;5.60;;
35462;SDS011;21578;47.892;9.970;2023-07-24T06:45:53;7.27;;;5.63;;
35462;SDS011;21578;47.892;9.970;2023-07-24T06:50:41;9.07;;;5.97;;
35462;SDS011;21578;47.892;9.970;2023-07-24T06:55:28;6.90;;;5.67;;
35462;SDS011;21578;47.892;9.970;2023-07-24T07:00:15;6.67;;;5.20;;
35462;SDS011;21578;47.892;9.970;2023-07-24T07:05:02;7.40;;;5.50;;
35462;SDS011;21578;47.892;9.970;2023-07-24T07:09:50;8.50;;;5.80;;
35462;SDS011;21578;47.892;9.970;2023-07-24T07:14:37;9.17;;;6.63;;
35462;SDS011;21578;47.892;9.970;2023-07-24T07:19:24;6.63;;;5.40;;
35462;SDS011;21578;47.892;9.970;2023-07-24T07:24:11;6.23;;;5.27;;
35462;SDS011;21578;47.892;9.970;2023-07-24T07:28:59;7.83;;;5.67;;
35462;SDS011;21578;47.892;9.970;2023-07-24T07:33:46;6.60;;;5.40;;
35462;SDS011;21578;47.892;9.970;2023-07-24T07:38:33;5.77;;;4.67;;
35462;SDS011;21578;47.892;9.970;2023-07-24T07:43:20;5.87;;;4.77;;
35462;SDS011;21578;47.892;9.970;2023-07-24T07:48:08;6.07;;;5.00;;
35462;SDS011;21578;47.892;9.970;2023-07-24T07:52:55;6.00;;;5.30;;
35462;SDS011;21578;47.892;9.970;2023-07-24T07:57:42;7.43;;;5.20;;
35462;SDS011;21578;47.892;9.970;2023-07-24T08:02:29;5.43;;;4.40;;
35462;SDS011;21578;47.892;9.970;2023-07-24T08:07:18;5.50;;;4.50;;
35462;SDS011;21578;47.892;9.970;2023-07-24T08:12:05;5.73;;;4.83;;
35462;SDS011;21578;47.892;9.970;2023-07-24T08:16:53;5.77;;;4.67;;
35462;SDS011;21578;47.892;9.970;2023-07-24T08:21:40;5.60;;;4.17;;
35462;SDS011;21578;47.892;9.970;2023-07-24T08:26:28;6.20;;;4.43;;
35462;SDS011;21578;47.892;9.970;2023-07-24T08:31:15;5.07;;;4.40;;
35462;SDS011;21578;47.892;9.970;2023-07-24T08:36:02;4.37;;;3.97;;
35462;SDS011;21578;47.892;9.970;2023-07-24T08:40:59;4.83;;;4.33;;
35462;SDS011;21578;47.892;9.970;2023-07-24T08:45:48;5.50;;;4.67;;
35462;SDS011;21578;47.892;9.970;2023-07-24T08:50:35;4.87;;;4.27;;
35462;SDS011;21578;47.892;9.970;2023-07-24T08:55:22;5.50;;;4.13;;
35462;SDS011;21578;47.892;9.970;2023-07-24T09:00:10;5.90;;;4.30;;
35462;SDS011;21578;47.892;9.970;2023-07-24T09:04:59;6.63;;;4.47;;
35462;SDS011;21578;47.892;9.970;2023-07-24T09:09:46;4.73;;;4.17;;
35462;SDS011;21578;47.892;9.970;2023-07-24T09:14:34;4.87;;;4.23;;
35462;SDS011;21578;47.892;9.970;2023-07-24T09:19:21;5.00;;;4.50;;
35462;SDS011;21578;47.892;9.970;2023-07-24T09:24:13;4.60;;;3.60;;
35462;SDS011;21578;47.892;9.970;2023-07-24T09:29:00;4.40;;;4.00;;
35462;SDS011;21578;47.892;9.970;2023-07-24T09:33:47;4.37;;;3.87;;
35462;SDS011;21578;47.892;9.970;2023-07-24T09:38:35;5.80;;;3.77;;
35462;SDS011;21578;47.892;9.970;2023-07-24T09:43:23;4.67;;;4.23;;
35462;SDS011;21578;47.892;9.970;2023-07-24T09:48:12;4.53;;;4.03;;
35462;SDS011;21578;47.892;9.970;2023-07-24T09:53:00;5.87;;;3.80;;
35462;SDS011;21578;47.892;9.970;2023-07-24T09:57:47;5.87;;;4.30;;
35462;SDS011;21578;47.892;9.970;2023-07-24T10:02:37;5.27;;;4.37;;
35462;SDS011;21578;47.892;9.970;2023-07-24T10:07:24;5.70;;;4.70;;
35462;SDS011;21578;47.892;9.970;2023-07-24T10:12:11;5.17;;;4.40;;
35462;SDS011;21578;47.892;9.970;2023-07-24T10:16:58;5.63;;;4.40;;
35462;SDS011;21578;47.892;9.970;2023-07-24T10:21:47;5.43;;;4.20;;
35462;SDS011;21578;47.892;9.970;2023-07-24T10:26:35;4.47;;;4.03;;
35462;SDS011;21578;47.892;9.970;2023-07-24T10:31:23;4.43;;;4.03;;
35462;SDS011;21578;47.892;9.970;2023-07-24T10:36:11;5.83;;;4.20;;
35462;SDS011;21578;47.892;9.970;2023-07-24T10:41:02;4.77;;;4.13;;
35462;SDS011;21578;47.892;9.970;2023-07-24T10:45:50;5.23;;;4.07;;
35462;SDS011;21578;47.892;9.970;2023-07-24T10:50:39;5.83;;;4.10;;
35462;SDS011;21578;47.892;9.970;2023-07-24T10:55:26;4.90;;;4.40;;
35462;SDS011;21578;47.892;9.970;2023-07-24T11:00:15;6.10;;;4.20;;
35462;SDS011;21578;47.892;9.970;2023-07-24T11:05:04;6.20;;;5.07;;
35462;SDS011;21578;47.892;9.970;2023-07-24T11:09:51;5.87;;;4.97;;
35462;SDS011;21578;47.892;9.970;2023-07-24T11:14:48;4.87;;;4.47;;
35462;SDS011;21578;47.892;9.970;2023-07-24T11:19:37;6.73;;;4.60;;
35462;SDS011;21578;47.892;9.970;2023-07-24T11:24:23;5.20;;;4.50;;
35462;SDS011;21578;47.892;9.970;2023-07-24T11:29:11;4.00;;;3.60;;
35462;SDS011;21578;47.892;9.970;2023-07-24T11:33:58;5.50;;;4.00;;
35462;SDS011;21578;47.892;9.970;2023-07-24T11:38:48;5.40;;;4.30;;
35462;SDS011;21578;47.892;9.970;2023-07-24T11:43:35;5.20;;;4.20;;
35462;SDS011;21578;47.892;9.970;2023-07-24T11:48:30;5.90;;;4.47;;
35462;SDS011;21578;47.892;9.970;2023-07-24T11:53:21;6.90;;;5.70;;
35462;SDS011;21578;47.892;9.970;2023-07-24T11:58:13;8.37;;;5.33;;
35462;SDS011;21578;47.892;9.970;2023-07-24T12:03:01;5.47;;;4.73;;
35462;SDS011;21578;47.892;9.970;2023-07-24T12:07:49;5.50;;;4.93;;
35462;SDS011;21578;47.892;9.970;2023-07-24T12:12:37;6.43;;;4.03;;
35462;SDS011;21578;47.892;9.970;2023-07-24T12:17:26;5.17;;;2.80;;
35462;SDS011;21578;47.892;9.970;2023-07-24T12:22:13;4.00;;;2.53;;
35462;SDS011;21578;47.892;9.970;2023-07-24T12:27:00;3.13;;;2.40;;
35462;SDS011;21578;47.892;9.970;2023-07-24T12:31:47;2.43;;;2.23;;
35462;SDS011;21578;47.892;9.970;2023-07-24T12:36:35;2.10;;;1.30;;
35462;SDS011;21578;47.892;9.970;2023-07-24T12:41:22;1.57;;;1.47;;
35462;SDS011;21578;47.892;9.970;2023-07-24T12:46:09;1.87;;;1.30;;
35462;SDS011;21578;47.892;9.970;2023-07-24T12:50:55;1.10;;;1.00;;
35462;SDS011;21578;47.892;9.970;2023-07-24T12:55:44;1.10;;;1.00;;
35462;SDS011;21578;47.892;9.970;2023-07-24T13:00:31;1.17;;;1.03;;
35462;SDS011;21578;47.892;9.970;2023-07-24T13:05:18;1.40;;;0.90;;
35462;SDS011;21578;47.892;9.970;2023-07-24T13:10:05;0.93;;;0.90;;
35462;SDS011;21578;47.892;9.970;2023-07-24T13:14:54;2.03;;;0.97;;
35462;SDS011;21578;47.892;9.970;2023-07-24T13:19:41;1.60;;;1.50;;
35462;SDS011;21578;47.892;9.970;2023-07-24T13:24:28;2.83;;;2.43;;
35462;SDS011;21578;47.892;9.970;2023-07-24T13:29:15;2.03;;;1.90;;
35462;SDS011;21578;47.892;9.970;2023-07-24T13:34:03;2.10;;;1.90;;
35462;SDS011;21578;47.892;9.970;2023-07-24T13:38:50;1.60;;;1.50;;
35462;SDS011;21578;47.892;9.970;2023-07-24T13:43:38;1.77;;;1.67;;
35462;SDS011;21578;47.892;9.970;2023-07-24T13:48:26;4.00;;;2.70;;
35462;SDS011;21578;47.892;9.970;2023-07-24T13:53:14;1.83;;;1.70;;
35462;SDS011;21578;47.892;9.970;2023-07-24T13:58:01;2.83;;;1.67;;
35462;SDS011;21578;47.892;9.970;2023-07-24T14:02:48;3.13;;;2.00;;
35462;SDS011;21578;47.892;9.970;2023-07-24T14:07:35;2.37;;;2.10;;
35462;SDS011;21578;47.892;9.970;2023-07-24T14:12:23;3.07;;;1.87;;
35462;SDS011;21578;47.892;9.970;2023-07-24T14:17:10;3.20;;;2.30;;
35462;SDS011;21578;47.892;9.970;2023-07-24T14:21:59;2.43;;;2.23;;
35462;SDS011;21578;47.892;9.970;2023-07-24T14:26:46;2.30;;;1.90;;
35462;SDS011;21578;47.892;9.970;2023-07-24T14:31:35;2.13;;;1.70;;
35462;SDS011;21578;47.892;9.970;2023-07-24T14:36:22;1.97;;;1.87;;
35462;SDS011;21578;47.892;9.970;2023-07-24T14:41:08;2.73;;;2.20;;
35462;SDS011;21578;47.892;9.970;2023-07-24T14:45:57;2.33;;;2.13;;
35462;SDS011;21578;47.892;9.970;2023-07-24T14:50:46;1.90;;;1.80;;
35462;SDS011;21578;47.892;9.970;2023-07-24T14:55:33;2.43;;;2.23;;
35462;SDS011;21578;47.892;9.970;2023-07-24T15:00:20;2.50;;;2.30;;
35462;SDS011;21578;47.892;9.970;2023-07-24T15:05:07;2.83;;;2.63;;
35462;SDS011;21578;47.892;9.970;2023-07-24T15:09:55;3.90;;;1.93;;
35462;SDS011;21578;47.892;9.970;2023-07-24T15:14:42;1.97;;;1.80;;
35462;SDS011;21578;47.892;9.970;2023-07-24T15:19:29;2.17;;;1.97;;
35462;SDS011;21578;47.892;9.970;2023-07-24T15:24:15;2.00;;;1.90;;
35462;SDS011;21578;47.892;9.970;2023-07-24T15:29:04;3.17;;;2.10;;
35462;SDS011;21578;47.892;9.970;2023-07-24T15:33:51;2.50;;;1.83;;
35462;SDS011;21578;47.892;9.970;2023-07-24T15:38:38;3.43;;;2.10;;
35462;SDS011;21578;47.892;9.970;2023-07-24T15:43:25;2.20;;;2.00;;
35462;SDS011;21578;47.892;9.970;2023-07-24T15:48:13;2.13;;;1.90;;
35462;SDS011;21578;47.892;9.970;2023-07-24T15:53:00;2.33;;;2.13;;
35462;SDS011;21578;47.892;9.970;2023-07-24T15:57:47;2.37;;;2.17;;
35462;SDS011;21578;47.892;9.970;2023-07-24T16:02:34;2.00;;;1.73;;
35462;SDS011;21578;47.892;9.970;2023-07-24T16:07:23;2.17;;;1.77;;
35462;SDS011;21578;47.892;9.970;2023-07-24T16:12:10;2.50;;;2.00;;
35462;SDS011;21578;47.892;9.970;2023-07-24T16:16:57;3.13;;;2.13;;
35462;SDS011;21578;47.892;9.970;2023-07-24T16:21:44;2.20;;;2.00;;
35462;SDS011;21578;47.892;9.970;2023-07-24T16:26:34;3.40;;;2.60;;
35462;SDS011;21578;47.892;9.970;2023-07-24T16:31:21;3.10;;;2.80;;
35462;SDS011;21578;47.892;9.970;2023-07-24T16:36:08;2.97;;;2.63;;
35462;SDS011;21578;47.892;9.970;2023-07-24T16:40:55;2.60;;;2.40;;
35462;SDS011;21578;47.892;9.970;2023-07-24T16:45:43;2.77;;;2.50;;
35462;SDS011;21578;47.892;9.970;2023-07-24T16:50:34;2.70;;;2.50;;
35462;SDS011;21578;47.892;9.970;2023-07-24T16:55:21;3.37;;;2.50;;
35462;SDS011;21578;47.892;9.970;2023-07-24T17:00:08;2.60;;;2.40;;
35462;SDS011;21578;47.892;9.970;2023-07-24T17:04:57;2.30;;;2.13;;
35462;SDS011;21578;47.892;9.970;2023-07-24T17:09:44;3.07;;;2.33;;
35462;SDS011;21578;47.892;9.970;2023-07-24T17:14:31;2.97;;;2.67;;
35462;SDS011;21578;47.892;9.970;2023-07-24T17:19:18;3.50;;;2.77;;
35462;SDS011;21578;47.892;9.970;2023-07-24T17:24:07;3.13;;;2.70;;
35462;SDS011;21578;47.892;9.970;2023-07-24T17:28:54;2.90;;;2.30;;
35462;SDS011;21578;47.892;9.970;2023-07-24T17:33:41;2.63;;;2.40;;
35462;SDS011;21578;47.892;9.970;2023-07-24T17:38:28;2.73;;;2.20;;
35462;SDS011;21578;47.892;9.970;2023-07-24T17:43:17;2.50;;;2.10;;
35462;SDS011;21578;47.892;9.970;2023-07-24T17:48:04;3.07;;;2.13;;
35462;SDS011;21578;47.892;9.970;2023-07-24T17:52:54;2.47;;;2.27;;
35462;SDS011;21578;47.892;9.970;2023-07-24T17:57:42;2.40;;;2.20;;
35462;SDS011;21578;47.892;9.970;2023-07-24T18:02:35;3.67;;;2.20;;
35462;SDS011;21578;47.892;9.970;2023-07-24T18:07:22;4.60;;;2.40;;
35462;SDS011;21578;47.892;9.970;2023-07-24T18:12:09;3.83;;;2.33;;
35462;SDS011;21578;47.892;9.970;2023-07-24T18:16:56;3.77;;;2.37;;
35462;SDS011;21578;47.892;9.970;2023-07-24T18:21:44;2.23;;;2.00;;
35462;SDS011;21578;47.892;9.970;2023-07-24T18:26:31;2.40;;;2.17;;
35462;SDS011;21578;47.892;9.970;2023-07-24T18:31:18;2.60;;;2.40;;
35462;SDS011;21578;47.892;9.970;2023-07-24T18:36:05;2.97;;;2.40;;
35462;SDS011;21578;47.892;9.970;2023-07-24T18:40:53;2.70;;;2.30;;
35462;SDS011;21578;47.892;9.970;2023-07-24T18:45:40;3.77;;;2.53;;
35462;SDS011;21578;47.892;9.970;2023-07-24T18:50:27;3.00;;;2.30;;
35462;SDS011;21578;47.892;9.970;2023-07-24T18:55:14;2.67;;;2.40;;
35462;SDS011;21578;47.892;9.970;2023-07-24T19:00:05;3.67;;;2.53;;
35462;SDS011;21578;47.892;9.970;2023-07-24T19:04:52;2.97;;;2.57;;
35462;SDS011;21578;47.892;9.970;2023-07-24T19:09:39;3.87;;;2.60;;
35462;SDS011;21578;47.892;9.970;2023-07-24T19:14:26;2.93;;;2.63;;
35462;SDS011;21578;47.892;9.970;2023-07-24T19:19:14;3.37;;;2.70;;
35462;SDS011;21578;47.892;9.970;2023-07-24T19:24:01;2.77;;;2.53;;
35462;SDS011;21578;47.892;9.970;2023-07-24T19:28:49;3.83;;;2.73;;
35462;SDS011;21578;47.892;9.970;2023-07-24T19:33:36;3.90;;;2.73;;
35462;SDS011;21578;47.892;9.970;2023-07-24T19:38:24;4.03;;;2.70;;
35462;SDS011;21578;47.892;9.970;2023-07-24T19:43:11;4.50;;;3.17;;
35462;SDS011;21578;47.892;9.970;2023-07-24T19:47:58;4.07;;;3.03;;
35462;SDS011;21578;47.892;9.970;2023-07-24T19:52:45;4.37;;;3.07;;
35462;SDS011;21578;47.892;9.970;2023-07-24T19:57:35;3.97;;;3.57;;
35462;SDS011;21578;47.892;9.970;2023-07-24T20:02:22;3.80;;;3.30;;
35462;SDS011;21578;47.892;9.970;2023-07-24T20:07:09;6.73;;;3.87;;
35462;SDS011;21578;47.892;9.970;2023-07-24T20:11:57;3.33;;;3.07;;
35462;SDS011;21578;47.892;9.970;2023-07-24T20:16:45;3.73;;;3.30;;
35462;SDS011;21578;47.892;9.970;2023-07-24T20:21:32;3.63;;;3.33;;
35462;SDS011;21578;47.892;9.970;2023-07-24T20:36:38;3.83;;;3.53;;
35462;SDS011;21578;47.892;9.970;2023-07-24T20:41:25;4.90;;;4.50;;
35462;SDS011;21578;47.892;9.970;2023-07-24T20:46:13;4.67;;;4.27;;
35462;SDS011;21578;47.892;9.970;2023-07-24T20:51:01;4.33;;;3.93;;
35462;SDS011;21578;47.892;9.970;2023-07-24T20:55:49;4.40;;;3.40;;
35462;SDS011;21578;47.892;9.970;2023-07-24T21:00:36;3.90;;;3.50;;
35462;SDS011;21578;47.892;9.970;2023-07-24T21:05:23;4.20;;;3.40;;
35462;SDS011;21578;47.892;9.970;2023-07-24T21:10:10;3.97;;;2.97;;
35462;SDS011;21578;47.892;9.970;2023-07-24T21:14:58;3.30;;;3.00;;
35462;SDS011;21578;47.892;9.970;2023-07-24T21:19:45;4.07;;;3.07;;
35462;SDS011;21578;47.892;9.970;2023-07-24T21:24:32;3.40;;;3.10;;
35462;SDS011;21578;47.892;9.970;2023-07-24T21:29:19;3.27;;;2.97;;
35462;SDS011;21578;47.892;9.970;2023-07-24T21:34:07;3.43;;;2.90;;
35462;SDS011;21578;47.892;9.970;2023-07-24T21:38:54;4.97;;;3.10;;
35462;SDS011;21578;47.892;9.970;2023-07-24T21:43:41;5.73;;;3.40;;
35462;SDS011;21578;47.892;9.970;2023-07-24T21:48:28;5.23;;;3.37;;
35462;SDS011;21578;47.892;9.970;2023-07-24T21:53:16;4.67;;;3.50;;
35462;SDS011;21578;47.892;9.970;2023-07-24T21:58:04;4.50;;;3.20;;
35462;SDS011;21578;47.892;9.970;2023-07-24T22:02:51;6.00;;;3.20;;
35462;SDS011;21578;47.892;9.970;2023-07-24T22:07:38;3.50;;;3.17;;
35462;SDS011;21578;47.892;9.970;2023-07-24T22:12:26;3.80;;;3.50;;
35462;SDS011;21578;47.892;9.970;2023-07-24T22:17:13;3.77;;;3.47;;
35462;SDS011;21578;47.892;9.970;2023-07-24T22:22:00;4.10;;;3.70;;
35462;SDS011;21578;47.892;9.970;2023-07-24T22:26:47;4.70;;;3.50;;
35462;SDS011;21578;47.892;9.970;2023-07-24T22:31:36;4.03;;;3.20;;
35462;SDS011;21578;47.892;9.970;2023-07-24T22:36:23;3.70;;;3.37;;
35462;SDS011;21578;47.892;9.970;2023-07-24T22:41:10;3.40;;;2.80;;
35462;SDS011;21578;47.892;9.970;2023-07-24T22:45:57;3.53;;;3.00;;
35462;SDS011;21578;47.892;9.970;2023-07-24T22:50:46;3.00;;;2.80;;
35462;SDS011;21578;47.892;9.970;2023-07-24T22:55:33;3.90;;;3.00;;
35462;SDS011;21578;47.892;9.970;2023-07-24T23:00:20;3.37;;;3.07;;
35462;SDS011;21578;47.892;9.970;2023-07-24T23:05:07;3.43;;;3.13;;
35462;SDS011;21578;47.892;9.970;2023-07-24T23:09:55;3.63;;;3.03;;
35462;SDS011;21578;47.892;9.970;2023-07-24T23:14:42;3.50;;;3.17;;
35462;SDS011;21578;47.892;9.970;2023-07-24T23:19:29;3.70;;;3.40;;
35462;SDS011;21578;47.892;9.970;2023-07-24T23:24:16;3.77;;;2.90;;
35462;SDS011;21578;47.892;9.970;2023-07-24T23:29:04;3.70;;;3.30;;
35462;SDS011;21578;47.892;9.970;2023-07-24T23:33:51;3.47;;;3.17;;
35462;SDS011;21578;47.892;9.970;2023-07-24T23:38:38;3.60;;;2.43;;
35462;SDS011;21578;47.892;9.970;2023-07-24T23:43:25;3.57;;;2.53;;
35462;SDS011;21578;47.892;9.970;2023-07-24T23:48:13;4.57;;;3.27;;
35462;SDS011;21578;47.892;9.970;2023-07-24T23:53:00;3.97;;;2.80;;
35462;SDS011;21578;47.892;9.970;2023-07-24T23:57:47;3.90;;;3.13;;
